Terminal Aerodrome Forecast
Issued by NWS Boston, MA

Home | Current Version | Previous Version | Text Only | Print | Product List | Glossary On
Versions: 1 2 3 4 5 6 7 8 9 10 11 12 13 14 15 16 17 18 19 20 21 22 23 24 25 26 27 28 29 30 31 32 33 34 35 36 37 38 39 40 41 42
000
FTUS41 KBOX 191455 AAA
TAFBDL
TAF AMD
KBDL 191455Z 1915/2018 31012KT P6SM OVC035
     FM200300 33004KT P6SM SCT020 BKN050
     FM200900 VRB03KT P6SM BKN025
     FM201100 VRB03KT P6SM BKN060=

USA.gov is the U.S. government's official web portal to all federal, state and local government web resources and services.